createdAt,value
2023-10-31T00:04:54.449Z,50.834778
2023-10-31T00:05:55.866Z,50.834766
2023-10-31T00:06:54.822Z,50.834755
2023-10-31T00:07:54.283Z,50.834782
2023-10-31T00:08:54.256Z,50.834789
2023-10-31T00:09:54.281Z,50.834774
2023-10-31T00:10:54.299Z,50.834797
2023-10-31T00:11:54.830Z,50.834774
2023-10-31T00:12:54.214Z,50.834770
2023-10-31T00:13:55.472Z,50.834747
2023-10-31T00:14:54.190Z,50.834736
2023-10-31T00:15:55.491Z,50.834763
2023-10-31T00:16:54.217Z,50.834770
2023-10-31T00:17:54.246Z,50.834770
2023-10-31T00:18:54.234Z,50.834759
2023-10-31T00:19:54.276Z,50.834770
2023-10-31T00:20:54.260Z,50.834793
2023-10-31T00:21:54.895Z,50.834789
2023-10-31T00:22:54.934Z,50.834793
2023-10-31T00:23:54.151Z,50.834797
2023-10-31T00:24:55.177Z,50.834785
2023-10-31T00:25:56.187Z,50.834797
2023-10-31T00:26:54.303Z,50.834793
2023-10-31T00:27:54.137Z,50.834797
2023-10-31T00:28:54.147Z,50.834770
2023-10-31T00:29:54.076Z,50.834782
2023-10-31T00:30:54.099Z,50.834774
2023-10-31T00:31:54.148Z,50.834805
2023-10-31T00:32:54.935Z,50.834808
2023-10-31T00:33:54.995Z,50.834793
2023-10-31T00:34:54.902Z,50.834805
2023-10-31T00:35:54.146Z,50.834812
2023-10-31T00:36:54.873Z,50.834805
2023-10-31T00:37:54.104Z,50.834789
2023-10-31T00:38:54.007Z,50.834801
2023-10-31T00:39:53.996Z,50.834778
2023-10-31T00:40:54.088Z,50.834797
2023-10-31T00:41:54.073Z,50.834774
2023-10-31T00:42:54.705Z,50.834797
2023-10-31T00:43:54.001Z,50.834770
2023-10-31T00:44:53.999Z,50.834766
2023-10-31T00:45:53.973Z,50.834774
2023-10-31T00:46:54.042Z,50.834774
2023-10-31T00:47:54.007Z,50.834770
2023-10-31T00:48:53.941Z,50.834774
2023-10-31T00:49:54.055Z,50.834778
2023-10-31T00:50:54.954Z,50.834770
2023-10-31T00:51:53.991Z,50.834774
2023-10-31T00:52:53.980Z,50.834770
2023-10-31T00:53:53.990Z,50.834766
2023-10-31T00:54:54.873Z,50.834770
2023-10-31T00:55:54.897Z,50.834766
2023-10-31T00:56:53.869Z,50.834763
2023-10-31T00:57:53.865Z,50.834766
2023-10-31T00:58:53.879Z,50.834759
2023-10-31T00:59:54.857Z,50.834789
2023-10-31T01:00:53.838Z,50.834789
2023-10-31T01:01:53.865Z,50.834812
2023-10-31T01:02:53.876Z,50.834789
2023-10-31T01:03:53.921Z,50.834812
2023-10-31T01:04:54.437Z,50.834801
2023-10-31T01:05:53.961Z,50.834850
2023-10-31T01:06:53.832Z,50.834812
2023-10-31T01:24:23.536Z,50.834797
2023-10-31T01:24:50.253Z,50.834778
2023-10-31T01:26:26.592Z,50.834759
2023-10-31T01:26:50.293Z,50.834785
2023-10-31T01:27:50.220Z,50.834835
2023-10-31T01:28:50.275Z,50.834812
2023-10-31T01:29:52.076Z,50.834805
2023-10-31T01:30:50.165Z,50.834827
2023-10-31T01:31:59.151Z,50.834820
2023-10-31T01:32:54.158Z,50.834812
2023-10-31T01:33:50.398Z,50.834831
2023-10-31T01:34:50.230Z,50.834808
2023-10-31T01:35:50.288Z,50.834805
2023-10-31T01:36:50.133Z,50.834816
2023-10-31T01:37:50.116Z,50.834801
2023-10-31T01:38:50.104Z,50.834805
2023-10-31T01:39:50.148Z,50.834755
2023-10-31T01:40:50.202Z,50.834740
2023-10-31T01:41:50.122Z,50.834770
2023-10-31T01:42:51.217Z,50.834805
2023-10-31T01:43:52.514Z,50.834808
2023-10-31T01:44:50.084Z,50.834812
2023-10-31T01:45:50.107Z,50.834827
2023-10-31T01:46:50.132Z,50.834816
2023-10-31T01:47:51.090Z,50.834831
2023-10-31T01:48:50.084Z,50.834835
2023-10-31T01:49:50.325Z,50.834793
2023-10-31T01:50:50.242Z,50.834770
2023-10-31T01:51:50.036Z,50.834789
2023-10-31T01:52:53.647Z,50.834816
2023-10-31T01:53:50.038Z,50.834820
2023-10-31T01:54:50.037Z,50.834808
2023-10-31T01:55:50.009Z,50.834812
2023-10-31T01:56:49.976Z,50.834824
2023-10-31T01:57:49.946Z,50.834816
2023-10-31T01:58:49.965Z,50.834793
2023-10-31T01:59:49.919Z,50.834816
2023-10-31T02:00:50.953Z,50.834808
2023-10-31T02:01:50.707Z,50.834801
2023-10-31T02:02:51.055Z,50.834824
2023-10-31T02:03:50.700Z,50.834824
2023-10-31T02:04:49.920Z,50.834824
2023-10-31T02:05:49.884Z,50.834820
2023-10-31T02:06:49.941Z,50.834827
2023-10-31T02:07:49.905Z,50.834835
2023-10-31T02:08:51.603Z,50.834820
2023-10-31T02:09:49.843Z,50.834816
2023-10-31T02:10:50.088Z,50.834831
2023-10-31T02:11:49.834Z,50.834843
2023-10-31T02:12:49.830Z,50.834808
2023-10-31T02:13:49.853Z,50.834820
2023-10-31T02:14:49.861Z,50.834812
2023-10-31T02:15:50.731Z,50.834808
2023-10-31T02:16:49.923Z,50.834831
2023-10-31T02:17:49.868Z,50.834835
2023-10-31T02:18:49.869Z,50.834835
2023-10-31T02:19:49.813Z,50.834824
2023-10-31T02:20:50.497Z,50.834824
2023-10-31T02:21:50.695Z,50.834827
2023-10-31T02:22:49.797Z,50.834831
2023-10-31T02:23:49.878Z,50.834839
2023-10-31T02:24:49.811Z,50.834843
2023-10-31T02:25:49.862Z,50.834824
2023-10-31T02:26:49.844Z,50.834839
2023-10-31T02:27:49.812Z,50.834820
2023-10-31T02:28:49.748Z,50.834820
2023-10-31T02:29:49.745Z,50.834835
2023-10-31T02:30:49.743Z,50.834831
2023-10-31T02:31:49.811Z,50.834797
2023-10-31T02:32:49.798Z,50.834808
2023-10-31T02:33:50.493Z,50.834816
2023-10-31T02:34:49.767Z,50.834827
2023-10-31T02:35:49.681Z,50.834820
2023-10-31T02:36:49.811Z,50.834835
2023-10-31T02:37:50.186Z,50.834835
2023-10-31T02:38:49.701Z,50.834820
2023-10-31T02:39:52.250Z,50.834827
2023-10-31T02:40:49.680Z,50.834831
2023-10-31T02:41:49.695Z,50.834824
2023-10-31T02:42:49.803Z,50.834831
2023-10-31T02:43:49.631Z,50.834835
2023-10-31T02:44:49.604Z,50.834835
2023-10-31T02:45:49.626Z,50.834835
2023-10-31T02:46:50.187Z,50.834831
2023-10-31T02:47:49.630Z,50.834816
2023-10-31T02:48:49.637Z,50.834812
2023-10-31T02:49:49.649Z,50.834827
2023-10-31T02:50:49.571Z,50.834812
2023-10-31T02:51:49.587Z,50.834843
2023-10-31T02:52:49.564Z,50.834835
2023-10-31T02:53:49.572Z,50.834827
2023-10-31T02:54:49.536Z,50.834850
2023-10-31T02:55:49.559Z,50.834827
2023-10-31T02:56:49.511Z,50.834835
2023-10-31T02:57:49.490Z,50.834827
2023-10-31T02:58:49.495Z,50.834839
2023-10-31T02:59:49.507Z,50.834839
2023-10-31T03:00:49.562Z,50.834846
2023-10-31T03:01:49.608Z,50.834824
2023-10-31T03:02:50.283Z,50.834816
2023-10-31T03:03:49.490Z,50.834846
2023-10-31T03:04:49.868Z,50.834835
2023-10-31T03:05:50.217Z,50.834843
2023-10-31T03:06:49.562Z,50.834843
2023-10-31T03:07:49.437Z,50.834843
2023-10-31T03:08:49.489Z,50.834881
2023-10-31T03:09:49.598Z,50.834854
2023-10-31T03:10:49.461Z,50.834866
2023-10-31T03:11:49.406Z,50.834854
2023-10-31T03:12:49.389Z,50.834866
2023-10-31T03:13:49.410Z,50.834839
2023-10-31T03:14:49.367Z,50.834854
2023-10-31T03:15:49.458Z,50.834862
2023-10-31T03:16:50.351Z,50.834850
2023-10-31T03:17:50.023Z,50.834831
2023-10-31T03:18:49.380Z,50.834827
2023-10-31T03:19:49.401Z,50.834789
2023-10-31T03:20:49.388Z,50.834835
2023-10-31T03:21:49.389Z,50.834824
2023-10-31T03:22:49.435Z,50.834862
2023-10-31T03:23:49.300Z,50.834831
2023-10-31T03:24:49.276Z,50.834843
2023-10-31T03:25:49.354Z,50.834854
2023-10-31T03:26:49.282Z,50.834835
2023-10-31T03:27:50.272Z,50.834846
2023-10-31T03:28:49.321Z,50.834854
2023-10-31T03:29:49.257Z,50.834843
2023-10-31T03:30:50.758Z,50.834854
2023-10-31T03:31:49.316Z,50.834835
2023-10-31T03:32:49.224Z,50.834850
2023-10-31T03:33:49.226Z,50.834835
2023-10-31T03:34:50.235Z,50.834854
2023-10-31T03:35:49.398Z,50.834824
2023-10-31T03:36:50.237Z,50.834805
2023-10-31T03:37:50.254Z,50.834793
2023-10-31T03:38:49.259Z,50.834831
2023-10-31T03:39:50.051Z,50.834869
2023-10-31T03:40:49.219Z,50.834866
2023-10-31T03:41:49.151Z,50.834839
2023-10-31T03:42:49.147Z,50.834843
2023-10-31T03:43:49.187Z,50.834843
2023-10-31T03:44:49.185Z,50.834824
2023-10-31T03:45:49.782Z,50.834824
2023-10-31T03:46:49.130Z,50.834812
2023-10-31T03:47:49.183Z,50.834805
2023-10-31T04:06:01.036Z,50.835289
2023-10-31T04:07:01.582Z,50.834888
2023-10-31T04:08:01.108Z,50.834877
2023-10-31T04:09:01.003Z,50.834873
2023-10-31T04:10:00.993Z,50.834881
2023-10-31T04:11:01.021Z,50.834873
2023-10-31T04:12:01.016Z,50.834869
2023-10-31T04:13:00.991Z,50.834866
2023-10-31T04:14:00.966Z,50.834846
2023-10-31T04:15:00.973Z,50.834808
2023-10-31T04:16:00.971Z,50.834816
2023-10-31T04:17:01.022Z,50.834820
2023-10-31T04:18:00.979Z,50.834831
2023-10-31T04:19:00.923Z,50.834797
2023-10-31T04:20:00.976Z,50.834824
2023-10-31T04:21:01.646Z,50.834820
2023-10-31T04:22:00.949Z,50.834820
2023-10-31T04:23:00.950Z,50.834816
2023-10-31T04:24:00.916Z,50.834816
2023-10-31T04:25:02.470Z,50.834789
2023-10-31T04:26:01.596Z,50.834827
2023-10-31T04:27:00.883Z,50.834839
2023-10-31T04:28:00.841Z,50.834812
2023-10-31T04:29:00.905Z,50.834793
2023-10-31T04:30:00.880Z,50.834820
2023-10-31T04:31:00.892Z,50.834824
2023-10-31T04:32:00.924Z,50.834858
2023-10-31T04:33:01.527Z,50.834835
2023-10-31T04:34:00.830Z,50.834820
2023-10-31T04:35:00.870Z,50.834839
2023-10-31T04:36:00.782Z,50.834843
2023-10-31T04:37:01.873Z,50.834843
2023-10-31T04:38:00.837Z,50.834846
2023-10-31T04:39:00.761Z,50.834843
2023-10-31T04:40:00.788Z,50.834843
2023-10-31T04:41:00.750Z,50.834896
2023-10-31T04:42:00.742Z,50.834816
2023-10-31T04:43:00.796Z,50.834846
2023-10-31T04:44:00.763Z,50.834854
2023-10-31T04:45:00.818Z,50.834846
2023-10-31T04:46:00.729Z,50.834877
2023-10-31T04:47:00.847Z,50.834866
2023-10-31T04:48:00.879Z,50.834866
2023-10-31T04:49:00.710Z,50.834850
2023-10-31T04:50:00.769Z,50.834869
2023-10-31T04:51:00.682Z,50.834850
2023-10-31T04:52:00.680Z,50.834843
2023-10-31T04:53:00.685Z,50.834831
2023-10-31T04:54:00.672Z,50.834862
2023-10-31T04:55:00.710Z,50.834839
2023-10-31T04:56:00.674Z,50.834812
2023-10-31T04:57:00.668Z,50.834793
2023-10-31T04:58:00.631Z,50.834805
2023-10-31T04:59:01.233Z,50.834801
2023-10-31T05:00:00.734Z,50.834816
2023-10-31T05:01:00.606Z,50.834812
2023-10-31T05:02:00.745Z,50.834816
2023-10-31T05:03:00.627Z,50.834812
2023-10-31T05:04:10.766Z,50.834801
2023-10-31T05:05:02.698Z,50.834782
2023-10-31T05:06:01.098Z,50.834793
2023-10-31T05:07:00.579Z,50.834808
2023-10-31T05:08:00.595Z,50.834820
2023-10-31T05:09:00.551Z,50.834808
2023-10-31T05:10:00.579Z,50.834816
2023-10-31T05:11:00.605Z,50.834827
2023-10-31T05:12:01.562Z,50.834816
2023-10-31T05:13:00.504Z,50.834843
2023-10-31T05:14:00.596Z,50.834831
2023-10-31T05:15:00.499Z,50.834827
2023-10-31T05:16:00.500Z,50.834824
2023-10-31T05:17:00.517Z,50.834824
2023-10-31T05:18:00.545Z,50.834820
2023-10-31T05:19:00.481Z,50.834824
2023-10-31T05:20:01.150Z,50.834839
2023-10-31T05:21:01.489Z,50.834827
2023-10-31T05:22:00.456Z,50.834835
2023-10-31T05:23:01.042Z,50.834839
2023-10-31T05:24:00.438Z,50.834827
2023-10-31T05:25:00.421Z,50.834827
2023-10-31T05:26:00.454Z,50.834812
2023-10-31T05:27:00.413Z,50.834831
2023-10-31T05:28:00.398Z,50.834820
2023-10-31T05:29:00.411Z,50.834820
2023-10-31T05:30:00.438Z,50.834827
2023-10-31T05:31:00.365Z,50.834812
2023-10-31T05:32:00.365Z,50.834812
2023-10-31T05:33:00.422Z,50.834816
2023-10-31T05:34:00.374Z,50.834793
2023-10-31T05:35:00.830Z,50.834793
2023-10-31T05:36:01.317Z,50.834816
2023-10-31T05:37:00.345Z,50.834816
2023-10-31T05:38:01.158Z,50.834793
2023-10-31T05:39:00.299Z,50.834812
2023-10-31T05:40:00.292Z,50.834831
2023-10-31T05:41:00.316Z,50.834812
2023-10-31T05:42:00.289Z,50.834812
2023-10-31T05:43:00.282Z,50.834824
2023-10-31T05:44:00.330Z,50.834820
2023-10-31T05:45:00.276Z,50.834812
2023-10-31T05:46:01.388Z,50.834820
2023-10-31T05:47:00.289Z,50.834808
2023-10-31T05:48:00.360Z,50.834797
2023-10-31T05:49:01.131Z,50.834797
2023-10-31T05:50:03.330Z,50.834820
2023-10-31T05:51:00.231Z,50.834808
2023-10-31T05:52:00.208Z,50.834812
2023-10-31T05:53:01.050Z,50.834805
2023-10-31T05:54:00.302Z,50.834789
2023-10-31T05:55:00.942Z,50.834805
2023-10-31T05:56:00.325Z,50.834797
2023-10-31T05:57:01.150Z,50.834824
2023-10-31T05:58:00.250Z,50.834827
2023-10-31T05:59:00.289Z,50.834797
2023-10-31T06:00:00.246Z,50.834812
2023-10-31T06:01:01.150Z,50.834831
2023-10-31T06:02:00.213Z,50.834835
2023-10-31T06:03:00.240Z,50.834812
2023-10-31T06:04:00.168Z,50.834808
2023-10-31T06:05:01.282Z,50.834805
2023-10-31T06:06:00.159Z,50.834805
2023-10-31T06:07:00.104Z,50.834808
2023-10-31T06:08:01.206Z,50.834793
2023-10-31T06:09:00.651Z,50.834801
2023-10-31T06:10:00.133Z,50.834820
2023-10-31T06:11:01.045Z,50.834774
2023-10-31T06:12:01.934Z,50.834812
2023-10-31T06:13:00.082Z,50.834782
2023-10-31T06:14:00.123Z,50.834778
2023-10-31T06:15:00.071Z,50.834797
2023-10-31T06:16:01.755Z,50.834805
2023-10-31T06:17:00.062Z,50.834793
2023-10-31T06:18:00.694Z,50.834793
2023-10-31T06:19:00.651Z,50.834812
2023-10-31T06:19:59.988Z,50.834782
2023-10-31T06:20:59.965Z,50.834797
2023-10-31T06:21:59.982Z,50.834782
2023-10-31T06:23:00.025Z,50.834801
2023-10-31T06:23:59.980Z,50.834778
2023-10-31T06:25:00.018Z,50.834812
2023-10-31T06:25:59.990Z,50.834785
2023-10-31T06:26:59.924Z,50.834801
2023-10-31T06:27:59.926Z,50.834797
2023-10-31T06:29:18.210Z,50.834812
2023-10-31T06:30:11.929Z,50.834801
2023-10-31T06:31:01.951Z,50.834778
2023-10-31T06:31:59.983Z,50.834778
2023-10-31T06:33:00.498Z,50.834789
2023-10-31T06:33:59.878Z,50.834774
2023-10-31T06:34:59.945Z,50.834770
2023-10-31T06:35:59.879Z,50.834782
2023-10-31T06:37:00.480Z,50.834778
2023-10-31T06:38:00.462Z,50.834778
2023-10-31T06:38:59.829Z,50.834785
2023-10-31T06:39:59.865Z,50.834785
2023-10-31T06:41:02.273Z,50.834789
2023-10-31T06:42:00.527Z,50.834785
2023-10-31T06:43:00.055Z,50.834789
2023-10-31T06:43:59.956Z,50.834789
2023-10-31T06:44:59.811Z,50.834789
2023-10-31T06:45:59.845Z,50.834801
2023-10-31T06:47:00.578Z,50.834785
2023-10-31T06:47:59.857Z,50.834778
2023-10-31T06:48:59.774Z,50.834785
2023-10-31T06:49:59.818Z,50.834785
2023-10-31T06:50:59.747Z,50.834789
2023-10-31T06:51:59.798Z,50.834793
2023-10-31T06:52:59.793Z,50.834789
2023-10-31T06:53:59.732Z,50.834785
2023-10-31T06:54:59.740Z,50.834793
2023-10-31T06:56:00.710Z,50.834782
2023-10-31T06:56:59.715Z,50.834797
2023-10-31T06:57:59.724Z,50.834785
2023-10-31T06:58:59.698Z,50.834774
2023-10-31T06:59:59.698Z,50.834797
2023-10-31T07:00:59.722Z,50.834782
2023-10-31T07:01:59.769Z,50.834789
2023-10-31T07:02:59.685Z,50.834782
2023-10-31T07:04:00.727Z,50.834789
2023-10-31T07:04:59.751Z,50.834797
2023-10-31T07:05:59.628Z,50.834785
2023-10-31T07:06:59.637Z,50.834797
2023-10-31T07:07:59.653Z,50.834793
2023-10-31T07:08:59.636Z,50.834782
2023-10-31T07:09:59.641Z,50.834774
2023-10-31T07:11:02.218Z,50.834789
2023-10-31T07:12:00.578Z,50.834785
2023-10-31T07:12:59.590Z,50.834785
2023-10-31T07:13:59.604Z,50.834793
2023-10-31T07:14:59.733Z,50.834774
2023-10-31T07:15:59.597Z,50.834785
2023-10-31T07:16:59.597Z,50.834801
2023-10-31T07:17:59.584Z,50.834797
2023-10-31T07:18:59.580Z,50.834782
2023-10-31T07:19:59.625Z,50.834793
2023-10-31T07:20:59.505Z,50.834789
2023-10-31T07:21:59.505Z,50.834785
2023-10-31T07:22:59.566Z,50.834763
2023-10-31T07:23:59.506Z,50.834774
2023-10-31T07:24:59.520Z,50.834793
2023-10-31T07:25:59.516Z,50.834793
2023-10-31T07:26:59.496Z,50.834793
2023-10-31T07:27:59.508Z,50.834801
2023-10-31T07:28:59.491Z,50.834782
2023-10-31T07:29:59.487Z,50.834774
2023-10-31T07:30:59.425Z,50.834763
2023-10-31T07:31:59.547Z,50.834740
2023-10-31T07:32:59.508Z,50.834778
2023-10-31T07:33:59.456Z,50.834778
2023-10-31T07:34:59.425Z,50.834785
2023-10-31T07:35:59.396Z,50.834774
2023-10-31T07:36:59.392Z,50.834805
2023-10-31T07:37:59.448Z,50.834805
2023-10-31T07:38:59.402Z,50.834785
2023-10-31T07:39:59.370Z,50.834766
2023-10-31T07:40:59.429Z,50.834766
2023-10-31T07:41:59.386Z,50.834766
2023-10-31T07:42:59.353Z,50.834770
2023-10-31T07:43:59.372Z,50.834770
2023-10-31T07:44:59.357Z,50.834785
2023-10-31T07:45:59.324Z,50.834785
2023-10-31T07:46:59.389Z,50.834789
2023-10-31T07:48:00.044Z,50.834778
2023-10-31T07:48:59.300Z,50.834778
2023-10-31T07:49:59.343Z,50.834770
2023-10-31T07:50:59.292Z,50.834793
2023-10-31T07:52:00.212Z,50.834827
2023-10-31T07:53:00.171Z,50.834812
2023-10-31T07:53:59.277Z,50.834785
2023-10-31T07:54:59.248Z,50.834797
2023-10-31T07:55:59.293Z,50.834789
2023-10-31T07:56:59.229Z,50.834778
2023-10-31T07:57:59.298Z,50.834785
2023-10-31T07:59:00.161Z,50.834774
2023-10-31T07:59:59.218Z,50.834774
2023-10-31T08:00:59.234Z,50.834782
2023-10-31T08:01:59.255Z,50.834801
2023-10-31T08:02:59.297Z,50.834812
2023-10-31T08:04:00.715Z,50.834789
2023-10-31T08:04:59.211Z,50.834778
2023-10-31T08:05:59.207Z,50.834766
2023-10-31T08:06:59.164Z,50.834824
2023-10-31T08:07:59.170Z,50.834812
2023-10-31T08:08:59.146Z,50.834835
2023-10-31T08:09:59.139Z,50.834801
2023-10-31T08:10:59.190Z,50.834778
2023-10-31T08:11:59.116Z,50.834770
2023-10-31T08:12:59.164Z,50.834789
2023-10-31T08:13:59.147Z,50.834801
2023-10-31T08:14:59.314Z,50.834812
2023-10-31T08:15:59.116Z,50.834778
2023-10-31T08:16:59.113Z,50.834785
2023-10-31T08:17:59.074Z,50.834793
2023-10-31T08:18:59.044Z,50.834782
2023-10-31T08:19:59.056Z,50.834778
2023-10-31T08:20:59.044Z,50.834816
2023-10-31T08:21:59.681Z,50.834793
2023-10-31T08:23:00.052Z,50.834778
2023-10-31T08:23:59.003Z,50.834816
2023-10-31T08:25:00.009Z,50.834789
2023-10-31T08:25:59.049Z,50.834789
2023-10-31T08:26:59.012Z,50.834774
2023-10-31T08:27:58.982Z,50.834805
2023-10-31T08:28:58.986Z,50.834785
2023-10-31T08:29:58.966Z,50.834808
2023-10-31T08:30:58.980Z,50.834797
2023-10-31T08:31:59.055Z,50.834793
2023-10-31T08:32:58.978Z,50.834785
2023-10-31T08:33:58.983Z,50.834793
2023-10-31T08:34:59.053Z,50.834793
2023-10-31T08:35:58.958Z,50.834816
2023-10-31T08:36:58.916Z,50.834785
2023-10-31T08:37:59.642Z,50.834793
2023-10-31T08:38:58.911Z,50.834801
2023-10-31T08:39:58.929Z,50.834797
2023-10-31T08:40:59.062Z,50.834782
2023-10-31T08:41:58.889Z,50.834801
2023-10-31T08:42:58.944Z,50.834797
2023-10-31T08:43:58.950Z,50.834782
2023-10-31T08:44:58.875Z,50.834808
2023-10-31T08:45:58.841Z,50.834797
2023-10-31T08:46:58.928Z,50.834797
2023-10-31T08:47:58.882Z,50.834812
2023-10-31T08:48:58.822Z,50.834805
2023-10-31T08:49:58.894Z,50.834820
2023-10-31T08:50:58.846Z,50.834839
2023-10-31T08:51:58.804Z,50.834805
2023-10-31T08:53:00.236Z,50.834816
2023-10-31T08:53:58.814Z,50.834824
2023-10-31T08:54:58.812Z,50.834820
2023-10-31T08:55:58.828Z,50.834820
2023-10-31T08:56:58.734Z,50.834816
2023-10-31T08:57:58.750Z,50.834839
2023-10-31T08:58:58.740Z,50.834824
2023-10-31T08:59:58.740Z,50.834812
2023-10-31T09:00:58.829Z,50.834820
2023-10-31T09:01:58.720Z,50.834801
2023-10-31T09:02:59.674Z,50.834812
2023-10-31T09:03:58.786Z,50.834812
2023-10-31T09:04:58.798Z,50.834793
2023-10-31T09:05:58.706Z,50.834793
2023-10-31T09:06:58.790Z,50.834812
2023-10-31T09:07:58.730Z,50.834812
2023-10-31T09:08:58.685Z,50.834801
2023-10-31T09:09:58.646Z,50.834797
2023-10-31T09:10:58.733Z,50.834805
2023-10-31T09:11:58.664Z,50.834816
2023-10-31T09:12:59.258Z,50.834816
2023-10-31T09:13:58.670Z,50.834789
2023-10-31T09:14:58.639Z,50.834789
2023-10-31T09:15:59.698Z,50.834785
2023-10-31T09:16:58.670Z,50.834785
2023-10-31T09:17:58.632Z,50.834808
2023-10-31T09:18:58.621Z,50.834808
2023-10-31T09:19:58.607Z,50.834801
2023-10-31T09:20:58.595Z,50.834812
2023-10-31T09:21:58.582Z,50.834805
2023-10-31T09:22:58.641Z,50.834816
2023-10-31T09:23:58.561Z,50.834785
2023-10-31T09:24:58.608Z,50.834774
2023-10-31T09:25:58.698Z,50.834797
2023-10-31T09:26:58.550Z,50.834778
2023-10-31T09:27:58.553Z,50.834801
2023-10-31T09:28:58.526Z,50.834785
2023-10-31T09:29:58.542Z,50.834793
2023-10-31T09:30:58.532Z,50.834805
2023-10-31T09:31:58.550Z,50.834789
2023-10-31T09:32:58.646Z,50.834778
2023-10-31T09:33:58.602Z,50.834785
2023-10-31T09:34:58.539Z,50.834778
2023-10-31T09:35:58.505Z,50.834801
2023-10-31T09:36:58.500Z,50.834808
2023-10-31T09:37:58.466Z,50.834820
2023-10-31T09:38:58.453Z,50.834801
2023-10-31T09:39:58.450Z,50.834789
2023-10-31T09:40:58.456Z,50.834797
2023-10-31T09:41:58.412Z,50.834770
2023-10-31T09:42:58.407Z,50.834778
2023-10-31T09:43:58.415Z,50.834793
2023-10-31T09:44:58.409Z,50.834789
2023-10-31T09:45:58.458Z,50.834778
2023-10-31T09:46:58.431Z,50.834789
2023-10-31T09:47:59.414Z,50.834801
2023-10-31T09:48:58.387Z,50.834785
2023-10-31T09:49:58.400Z,50.834797
2023-10-31T09:50:58.357Z,50.834801
2023-10-31T09:51:58.366Z,50.834805
2023-10-31T09:52:58.385Z,50.834801
2023-10-31T09:53:58.408Z,50.834805
2023-10-31T09:54:58.370Z,50.834782
2023-10-31T09:55:59.003Z,50.834778
2023-10-31T09:56:58.324Z,50.834797
2023-10-31T09:57:58.286Z,50.834793
2023-10-31T09:58:58.376Z,50.834789
2023-10-31T09:59:58.319Z,50.834797
2023-10-31T10:00:58.276Z,50.834793
2023-10-31T10:01:58.481Z,50.834785
2023-10-31T10:02:58.317Z,50.834793
2023-10-31T10:03:58.362Z,50.834797
2023-10-31T10:04:58.313Z,50.834793
2023-10-31T10:05:59.260Z,50.834789
2023-10-31T10:06:58.210Z,50.834797
2023-10-31T10:07:58.260Z,50.834766
2023-10-31T10:08:58.231Z,50.834793
2023-10-31T10:09:58.187Z,50.834785
2023-10-31T10:10:58.214Z,50.834785
2023-10-31T10:11:58.184Z,50.834759
2023-10-31T10:12:58.167Z,50.834736
2023-10-31T10:13:58.182Z,50.834743
2023-10-31T10:14:58.169Z,50.834740
2023-10-31T10:15:58.210Z,50.834736
2023-10-31T10:16:58.213Z,50.834736
2023-10-31T10:17:58.160Z,50.834740
2023-10-31T10:18:58.130Z,50.834740
2023-10-31T10:19:58.180Z,50.834740
2023-10-31T10:20:58.146Z,50.834743
2023-10-31T10:21:58.098Z,50.834751
2023-10-31T10:22:58.151Z,50.834755
2023-10-31T10:23:58.113Z,50.834740
2023-10-31T10:24:58.130Z,50.834743
2023-10-31T10:25:58.149Z,50.834755
2023-10-31T10:26:58.062Z,50.834770
2023-10-31T10:27:58.052Z,50.834763
2023-10-31T10:28:58.064Z,50.834755
2023-10-31T10:29:58.070Z,50.834759
2023-10-31T10:30:58.067Z,50.834778
2023-10-31T10:31:58.056Z,50.834747
2023-10-31T10:32:58.043Z,50.834743
2023-10-31T10:33:58.682Z,50.834747
2023-10-31T10:35:31.053Z,50.834763
2023-10-31T10:36:30.628Z,50.834774
2023-10-31T10:37:29.940Z,50.834774
2023-10-31T10:38:30.382Z,50.834774
2023-10-31T10:38:57.955Z,50.834774
2023-10-31T10:39:58.869Z,50.834770
2023-10-31T10:40:58.013Z,50.834778
2023-10-31T10:41:57.933Z,50.834778
2023-10-31T10:42:57.952Z,50.834774
2023-10-31T10:43:57.928Z,50.834766
2023-10-31T10:44:58.628Z,50.834778
2023-10-31T10:45:59.036Z,50.834797
2023-10-31T10:46:57.995Z,50.834785
2023-10-31T10:47:58.007Z,50.834793
2023-10-31T10:48:58.827Z,50.834797
2023-10-31T10:49:58.877Z,50.834793
2023-10-31T10:50:57.899Z,50.834785
2023-10-31T10:51:58.634Z,50.834785
2023-10-31T10:52:57.928Z,50.834797
2023-10-31T10:53:57.944Z,50.834766
2023-10-31T10:54:57.868Z,50.834770
2023-10-31T10:55:58.294Z,50.834782
2023-10-31T10:56:57.863Z,50.834808
2023-10-31T10:57:57.939Z,50.834793
2023-10-31T10:58:58.688Z,50.834805
2023-10-31T10:59:57.864Z,50.834797
2023-10-31T11:00:57.856Z,50.834763
2023-10-31T11:01:57.834Z,50.834755
2023-10-31T11:02:58.013Z,50.834751
2023-10-31T11:03:58.383Z,50.834766
2023-10-31T11:04:57.806Z,50.834782
2023-10-31T11:05:57.796Z,50.834805
2023-10-31T11:06:57.775Z,50.834789
2023-10-31T11:07:59.885Z,50.834759
2023-10-31T11:09:00.311Z,50.834732
2023-10-31T11:09:57.791Z,50.834763
2023-10-31T11:10:58.006Z,50.834759
2023-10-31T11:11:57.905Z,50.834766
2023-10-31T11:12:57.865Z,50.834778
2023-10-31T11:13:57.763Z,50.834785
2023-10-31T11:14:57.746Z,50.834805
2023-10-31T11:15:57.735Z,50.834808
2023-10-31T11:16:57.707Z,50.834812
2023-10-31T11:17:57.683Z,50.834778
2023-10-31T11:18:57.639Z,50.834797
2023-10-31T11:19:57.842Z,50.834808
2023-10-31T11:20:57.657Z,50.834805
2023-10-31T11:21:57.656Z,50.834812
2023-10-31T11:22:58.391Z,50.834820
2023-10-31T11:23:57.631Z,50.834812
2023-10-31T11:24:57.691Z,50.834839
2023-10-31T11:25:58.278Z,50.834824
2023-10-31T11:26:57.710Z,50.834797
2023-10-31T11:27:58.530Z,50.834782
2023-10-31T11:28:57.780Z,50.834854
2023-10-31T11:29:58.418Z,50.834824
2023-10-31T11:30:57.589Z,50.834820
2023-10-31T11:31:57.601Z,50.834824
2023-10-31T11:32:57.587Z,50.834824
2023-10-31T11:33:57.546Z,50.834812
2023-10-31T11:34:57.640Z,50.834801
2023-10-31T11:35:57.596Z,50.834827
2023-10-31T11:36:58.335Z,50.834835
2023-10-31T11:37:58.366Z,50.834827
2023-10-31T11:38:57.607Z,50.834827
2023-10-31T11:39:57.661Z,50.834827
2023-10-31T11:40:57.890Z,50.834808
2023-10-31T11:41:57.618Z,50.834827
2023-10-31T11:42:57.503Z,50.834801
2023-10-31T11:43:57.524Z,50.834782
2023-10-31T11:44:57.451Z,50.834843
2023-10-31T11:45:57.518Z,50.834801
2023-10-31T11:46:57.441Z,50.834812
2023-10-31T11:47:58.285Z,50.834820
2023-10-31T11:48:58.233Z,50.834808
2023-10-31T11:49:58.382Z,50.834801
2023-10-31T11:50:57.730Z,50.834816
2023-10-31T11:51:58.392Z,50.834801
2023-10-31T11:52:57.484Z,50.834820
2023-10-31T11:53:57.400Z,50.834793
2023-10-31T11:54:57.387Z,50.834812
2023-10-31T11:55:57.413Z,50.834812
2023-10-31T11:56:57.347Z,50.834805
2023-10-31T11:57:57.349Z,50.834789
2023-10-31T11:58:58.233Z,50.834774
2023-10-31T12:00:29.777Z,50.834785
2023-10-31T12:00:57.422Z,50.834782
2023-10-31T12:01:57.366Z,50.834797